createdAt,value
2017-03-09T00:00:54.695Z,7.13
2017-03-09T00:02:04.442Z,7.09
2017-03-09T00:03:13.767Z,7.1
2017-03-09T00:04:22.774Z,7.16
2017-03-09T00:05:31.688Z,7.09
2017-03-09T00:06:41.449Z,7.05
2017-03-09T00:07:50.786Z,7.13
2017-03-09T00:09:00.519Z,7.16
2017-03-09T00:10:09.968Z,7.15
2017-03-09T00:11:19.696Z,7.1
2017-03-09T00:12:29.028Z,7.06
2017-03-09T00:13:37.953Z,7.05
2017-03-09T00:14:47.294Z,6.99
2017-03-09T00:15:56.278Z,6.99
2017-03-09T00:17:05.198Z,7.05
2017-03-09T00:18:14.928Z,7.06
2017-03-09T00:19:23.853Z,7.1
2017-03-09T00:20:32.797Z,7.09
2017-03-09T00:21:42.185Z,7.07
2017-03-09T00:22:51.513Z,7.09
2017-03-09T00:24:01.248Z,7.02
2017-03-09T00:25:10.586Z,7.02
2017-03-09T00:26:19.511Z,7.05
2017-03-09T00:27:29.200Z,7.03
2017-03-09T00:28:38.550Z,7.03
2017-03-09T00:29:47.863Z,7.05
2017-03-09T00:30:57.178Z,7.05
2017-03-09T00:32:06.496Z,6.99
2017-03-09T00:33:15.945Z,7.03
2017-03-09T00:34:25.261Z,6.99
2017-03-09T00:35:34.596Z,6.95
2017-03-09T00:36:44.741Z,7.06
2017-03-09T00:37:54.479Z,7.05
2017-03-09T00:39:04.891Z,6.95
2017-03-09T00:40:14.695Z,7.03
2017-03-09T00:41:24.432Z,7.02
2017-03-09T00:42:33.763Z,6.99
2017-03-09T00:43:42.675Z,6.97
2017-03-09T00:44:52.965Z,7.02
2017-03-09T00:46:02.312Z,6.92
2017-03-09T00:47:12.049Z,6.95
2017-03-09T00:48:21.367Z,7.02
2017-03-09T00:49:31.944Z,7.03
2017-03-09T00:50:41.035Z,6.92
2017-03-09T00:51:50.357Z,6.92
2017-03-09T00:53:00.081Z,6.92
2017-03-09T00:54:09.819Z,6.87
2017-03-09T00:55:19.967Z,6.92
2017-03-09T00:56:29.296Z,6.81
2017-03-09T00:57:39.046Z,6.87
2017-03-09T00:58:48.786Z,6.85
2017-03-09T00:59:58.528Z,6.84
2017-03-09T01:01:08.267Z,6.94
2017-03-09T01:02:17.346Z,6.81
2017-03-09T01:03:27.070Z,6.89
2017-03-09T01:04:36.397Z,6.81
2017-03-09T01:05:45.716Z,6.87
2017-03-09T01:06:54.671Z,6.87
2017-03-09T01:08:04.476Z,6.85
2017-03-09T01:09:14.613Z,6.87
2017-03-09T01:10:24.366Z,6.84
2017-03-09T01:11:34.094Z,6.77
2017-03-09T01:12:43.855Z,6.79
2017-03-09T01:13:52.904Z,6.84
2017-03-09T01:15:02.250Z,6.84
2017-03-09T01:16:11.629Z,6.74
2017-03-09T01:17:20.548Z,6.77
2017-03-09T01:18:29.874Z,6.79
2017-03-09T01:19:39.344Z,6.76
2017-03-09T01:20:48.671Z,6.81
2017-03-09T01:21:58.418Z,6.76
2017-03-09T01:23:08.141Z,6.77
2017-03-09T01:24:17.460Z,6.74
2017-03-09T01:25:26.838Z,6.8
2017-03-09T01:26:35.759Z,6.76
2017-03-09T01:27:45.515Z,6.7
2017-03-09T01:28:54.865Z,6.71
2017-03-09T01:30:04.597Z,6.73
2017-03-09T01:31:14.474Z,6.7
2017-03-09T01:32:23.388Z,6.69
2017-03-09T01:33:32.722Z,6.71
2017-03-09T01:34:42.457Z,6.61
2017-03-09T01:35:51.778Z,6.67
2017-03-09T01:37:01.821Z,6.64
2017-03-09T01:38:10.730Z,6.58
2017-03-09T01:39:20.064Z,6.67
2017-03-09T01:40:29.813Z,6.66
2017-03-09T01:41:39.566Z,6.76
2017-03-09T01:42:49.054Z,6.66
2017-03-09T01:43:59.187Z,6.71
2017-03-09T01:45:08.916Z,6.7
2017-03-09T01:46:17.838Z,6.67
2017-03-09T01:47:27.576Z,6.66
2017-03-09T01:48:37.350Z,6.71
2017-03-09T01:49:46.696Z,6.61
2017-03-09T01:50:56.435Z,6.69
2017-03-09T01:52:05.360Z,6.76
2017-03-09T01:53:15.095Z,6.69
2017-03-09T01:54:24.516Z,6.71
2017-03-09T01:55:34.668Z,6.77
2017-03-09T01:56:44.422Z,6.71
2017-03-09T01:57:53.743Z,6.67
2017-03-09T01:59:03.509Z,6.67
2017-03-09T02:00:12.530Z,6.73
2017-03-09T02:01:21.885Z,6.62
2017-03-09T02:02:30.798Z,6.73
2017-03-09T02:03:40.525Z,6.64
2017-03-09T02:04:50.676Z,6.62
2017-03-09T02:06:00.219Z,6.73
2017-03-09T02:07:09.960Z,6.61
2017-03-09T02:08:19.278Z,6.69
2017-03-09T02:09:29.014Z,6.77
2017-03-09T02:10:38.368Z,6.71
2017-03-09T02:11:48.634Z,6.7
2017-03-09T02:12:57.971Z,6.67
2017-03-09T02:14:06.902Z,6.71
2017-03-09T02:15:16.228Z,6.73
2017-03-09T02:16:25.978Z,6.69
2017-03-09T02:17:35.297Z,6.73
2017-03-09T02:18:44.616Z,6.73
2017-03-09T02:19:54.364Z,6.67
2017-03-09T02:21:04.504Z,6.69
2017-03-09T02:22:13.425Z,6.69
2017-03-09T02:23:22.493Z,6.67
2017-03-09T02:24:31.819Z,6.64
2017-03-09T02:25:41.546Z,6.7
2017-03-09T02:26:50.488Z,6.74
2017-03-09T02:28:00.231Z,6.64
2017-03-09T02:29:10.512Z,6.62
2017-03-09T02:30:19.459Z,6.61
2017-03-09T02:31:28.794Z,6.64
2017-03-09T02:32:38.527Z,6.59
2017-03-09T02:33:47.859Z,6.59
2017-03-09T02:34:57.999Z,6.61
2017-03-09T02:36:07.319Z,6.59
2017-03-09T02:37:16.230Z,6.59
2017-03-09T02:38:25.137Z,6.62
2017-03-09T02:39:34.463Z,6.62
2017-03-09T02:40:44.194Z,6.62
2017-03-09T02:41:53.521Z,6.66
2017-03-09T02:43:03.266Z,6.59
2017-03-09T02:44:12.600Z,6.59
2017-03-09T02:45:23.158Z,6.59
2017-03-09T02:46:33.463Z,6.48
2017-03-09T02:47:42.382Z,6.48
2017-03-09T02:48:52.528Z,6.49
2017-03-09T02:50:02.282Z,6.52
2017-03-09T02:51:12.044Z,6.51
2017-03-09T02:52:21.849Z,6.54
2017-03-09T02:53:31.168Z,6.55
2017-03-09T02:54:40.519Z,6.48
2017-03-09T02:55:50.252Z,6.49
2017-03-09T02:56:59.165Z,6.52
2017-03-09T02:58:08.683Z,6.46
2017-03-09T02:59:18.408Z,6.51
2017-03-09T03:00:27.725Z,6.46
2017-03-09T03:01:37.469Z,6.54
2017-03-09T03:02:46.792Z,6.33
2017-03-09T03:03:56.280Z,6.36
2017-03-09T03:05:06.053Z,6.37
2017-03-09T03:06:15.846Z,6.37
2017-03-09T03:07:25.576Z,6.4
2017-03-09T03:08:34.896Z,6.3
2017-03-09T03:09:44.482Z,6.3
2017-03-09T03:10:54.231Z,6.21
2017-03-09T03:12:03.999Z,6.27
2017-03-09T03:13:13.755Z,6.33
2017-03-09T03:14:23.094Z,6.28
2017-03-09T03:15:32.873Z,6.33
2017-03-09T03:16:43.429Z,6.3
2017-03-09T03:17:52.749Z,6.28
2017-03-09T03:19:02.083Z,6.22
2017-03-09T03:20:11.823Z,6.22
2017-03-09T03:21:21.320Z,6.27
2017-03-09T03:22:30.230Z,6.25
2017-03-09T03:23:39.145Z,6.33
2017-03-09T03:24:48.462Z,6.28
2017-03-09T03:25:58.202Z,6.25
2017-03-09T03:27:07.777Z,6.22
2017-03-09T03:28:17.119Z,6.21
2017-03-09T03:29:26.852Z,6.21
2017-03-09T03:30:35.767Z,6.27
2017-03-09T03:31:45.922Z,6.25
2017-03-09T03:32:55.358Z,6.18
2017-03-09T03:34:05.096Z,6.22
2017-03-09T03:35:15.240Z,6.22
2017-03-09T03:36:24.157Z,6.28
2017-03-09T03:37:33.907Z,6.22
2017-03-09T03:38:43.792Z,6.25
2017-03-09T03:39:53.117Z,6.27
2017-03-09T03:41:02.482Z,6.25
2017-03-09T03:42:12.216Z,6.27
2017-03-09T03:43:21.548Z,6.12
2017-03-09T03:44:31.076Z,6.27
2017-03-09T03:45:40.410Z,6.19
2017-03-09T03:46:50.169Z,6.22
2017-03-09T03:47:59.094Z,6.19
2017-03-09T03:49:08.449Z,6.19
2017-03-09T03:50:19.209Z,6.22
2017-03-09T03:51:28.121Z,6.12
2017-03-09T03:52:37.454Z,6.17
2017-03-09T03:53:46.770Z,6.15
2017-03-09T03:54:56.093Z,6.09
2017-03-09T03:56:05.056Z,6.12
2017-03-09T03:57:14.376Z,6.09
2017-03-09T03:58:23.721Z,6.11
2017-03-09T03:59:33.855Z,6.08
2017-03-09T04:00:44.007Z,6.09
2017-03-09T04:01:53.779Z,6.15
2017-03-09T04:03:03.515Z,6.12
2017-03-09T04:04:13.646Z,6.12
2017-03-09T04:05:22.990Z,6.08
2017-03-09T04:06:32.735Z,6.12
2017-03-09T04:07:42.513Z,6.12
2017-03-09T04:08:52.245Z,6.09
2017-03-09T04:10:01.583Z,6.12
2017-03-09T04:11:10.931Z,6.15
2017-03-09T04:12:20.248Z,6.17
2017-03-09T04:13:30.289Z,6.09
2017-03-09T04:14:39.221Z,6.06
2017-03-09T04:15:48.555Z,6.01
2017-03-09T04:16:57.875Z,6.01
2017-03-09T04:18:07.203Z,6.04
2017-03-09T04:19:17.540Z,6.19
2017-03-09T04:20:27.285Z,6.01
2017-03-09T04:21:37.020Z,6.04
2017-03-09T04:22:46.377Z,6.08
2017-03-09T04:23:56.100Z,6.08
2017-03-09T04:25:05.617Z,6.09
2017-03-09T04:26:15.352Z,6.14
2017-03-09T04:27:24.736Z,6.04
2017-03-09T04:28:34.074Z,6.08
2017-03-09T04:29:43.842Z,6.18
2017-03-09T04:30:53.027Z,6.09
2017-03-09T04:32:03.165Z,6.14
2017-03-09T04:33:12.083Z,6.19
2017-03-09T04:34:21.829Z,6.17
2017-03-09T04:35:31.977Z,6.21
2017-03-09T04:36:41.798Z,6.22
2017-03-09T04:37:51.533Z,6.12
2017-03-09T04:39:01.700Z,6.04
2017-03-09T04:40:11.019Z,6.09
2017-03-09T04:41:20.334Z,6.06
2017-03-09T04:42:30.231Z,6.03
2017-03-09T04:43:39.963Z,6.06
2017-03-09T04:44:49.280Z,6.06
2017-03-09T04:45:59.018Z,6.14
2017-03-09T04:47:08.355Z,6.12
2017-03-09T04:48:17.947Z,6.12
2017-03-09T04:49:27.289Z,6.12
2017-03-09T04:50:37.043Z,6.09
2017-03-09T04:51:46.359Z,6.11
2017-03-09T04:52:55.682Z,6.01
2017-03-09T04:54:05.161Z,6.04
2017-03-09T04:55:14.079Z,6.08
2017-03-09T04:56:22.988Z,6
2017-03-09T04:57:31.908Z,6.11
2017-03-09T04:58:41.264Z,6.01
2017-03-09T04:59:50.640Z,6.06
2017-03-09T05:00:59.973Z,6.03
2017-03-09T05:02:10.510Z,6.06
2017-03-09T05:03:19.434Z,6.12
2017-03-09T05:04:28.364Z,6.01
2017-03-09T05:05:37.457Z,6.17
2017-03-09T05:06:46.805Z,6.14
2017-03-09T05:07:55.713Z,6.09
2017-03-09T05:09:04.627Z,6.04
2017-03-09T05:10:13.584Z,6.04
2017-03-09T05:11:23.203Z,6.04
2017-03-09T05:12:32.974Z,5.97
2017-03-09T05:13:42.720Z,6.04
2017-03-09T05:14:52.446Z,5.97
2017-03-09T05:16:01.759Z,5.96
2017-03-09T05:17:10.789Z,5.96
2017-03-09T05:18:20.925Z,5.91
2017-03-09T05:19:29.856Z,6.01
2017-03-09T05:20:39.592Z,5.99
2017-03-09T05:21:49.338Z,6.03
2017-03-09T05:22:59.187Z,6.03
2017-03-09T05:24:08.110Z,6.03
2017-03-09T05:25:17.833Z,6.03
2017-03-09T05:26:27.575Z,5.96
2017-03-09T05:27:37.319Z,6.14
2017-03-09T05:28:47.107Z,5.99
2017-03-09T05:29:56.844Z,6.06
2017-03-09T05:31:06.204Z,6.09
2017-03-09T05:32:15.928Z,6.08
2017-03-09T05:33:25.719Z,6.09
2017-03-09T05:34:35.245Z,6.12
2017-03-09T05:35:44.979Z,6.06
2017-03-09T05:36:54.340Z,6.08
2017-03-09T05:38:03.682Z,6.04
2017-03-09T05:39:13.425Z,6.03
2017-03-09T05:40:22.903Z,6.06
2017-03-09T05:41:32.643Z,6.04
2017-03-09T05:42:41.979Z,6.09
2017-03-09T05:43:50.923Z,5.99
2017-03-09T05:44:59.828Z,6.08
2017-03-09T05:46:10.171Z,6.14
2017-03-09T05:47:19.089Z,6.09
2017-03-09T05:48:28.423Z,6.14
2017-03-09T05:49:37.748Z,6.03
2017-03-09T05:50:47.073Z,6.09
2017-03-09T05:51:56.874Z,6.03
2017-03-09T05:53:07.024Z,6.12
2017-03-09T05:54:16.783Z,5.99
2017-03-09T05:55:25.707Z,6.08
2017-03-09T05:56:35.863Z,6.03
2017-03-09T05:57:45.392Z,6.04
2017-03-09T05:58:54.717Z,6
2017-03-09T06:00:04.045Z,5.94
2017-03-09T06:01:13.371Z,5.99
2017-03-09T06:02:22.724Z,5.97
2017-03-09T06:03:32.467Z,6
2017-03-09T06:04:41.393Z,6
2017-03-09T06:05:50.732Z,5.97
2017-03-09T06:07:00.867Z,6
2017-03-09T06:08:10.287Z,6
2017-03-09T06:09:20.050Z,6.04
2017-03-09T06:10:29.784Z,6.01
2017-03-09T06:11:39.121Z,6
2017-03-09T06:12:48.454Z,6
2017-03-09T06:13:57.664Z,6.06
2017-03-09T06:15:07.012Z,6.08
2017-03-09T06:16:16.772Z,5.89
2017-03-09T06:17:26.088Z,6.01
2017-03-09T06:18:36.243Z,6.14
2017-03-09T06:19:46.134Z,6.14
2017-03-09T06:20:55.054Z,6.06
2017-03-09T06:22:03.960Z,6.11
2017-03-09T06:23:13.289Z,6.11
2017-03-09T06:24:23.052Z,6.11
2017-03-09T06:25:32.570Z,6.12
2017-03-09T06:26:43.123Z,6.09
2017-03-09T06:27:52.861Z,6.08
2017-03-09T06:29:02.645Z,6.09
2017-03-09T06:30:11.958Z,6.19
2017-03-09T06:31:21.757Z,6.14
2017-03-09T06:32:31.078Z,6.12
2017-03-09T06:33:40.001Z,6.09
2017-03-09T06:34:49.325Z,6.25
2017-03-09T06:35:58.654Z,6.22
2017-03-09T06:37:08.024Z,6.25
2017-03-09T06:38:16.939Z,6.19
2017-03-09T06:39:26.267Z,6.08
2017-03-09T06:40:35.595Z,6.09
2017-03-09T06:41:45.748Z,6.21
2017-03-09T06:42:55.242Z,6.17
2017-03-09T06:44:04.986Z,6.22
2017-03-09T06:45:14.361Z,6.21
2017-03-09T06:46:23.275Z,6.17
2017-03-09T06:47:32.598Z,6.17
2017-03-09T06:48:42.636Z,6.25
2017-03-09T06:49:52.388Z,6.22
2017-03-09T06:51:02.112Z,6.15
2017-03-09T06:52:11.056Z,6.22
2017-03-09T06:53:21.201Z,6.22
2017-03-09T06:54:31.588Z,6.27
2017-03-09T06:55:40.506Z,6.19
2017-03-09T06:56:50.228Z,6.22
2017-03-09T06:57:59.564Z,6.27
2017-03-09T06:59:08.897Z,6.3
2017-03-09T07:00:19.053Z,6.17
2017-03-09T07:01:27.971Z,6.3
2017-03-09T07:02:37.306Z,6.19
2017-03-09T07:03:46.640Z,6.27
2017-03-09T07:04:56.801Z,6.25
2017-03-09T07:06:06.581Z,6.25
2017-03-09T07:07:16.342Z,6.31
2017-03-09T07:08:25.683Z,6.28
2017-03-09T07:09:34.597Z,6.28
2017-03-09T07:10:44.739Z,6.38
2017-03-09T07:11:54.473Z,6.25
2017-03-09T07:13:04.191Z,6.28
2017-03-09T07:14:13.120Z,6.33
2017-03-09T07:15:23.273Z,6.25
2017-03-09T07:16:32.617Z,6.18
2017-03-09T07:17:42.299Z,6.21
2017-03-09T07:18:51.644Z,6.25
2017-03-09T07:20:00.971Z,6.21
2017-03-09T07:21:10.701Z,6.33
2017-03-09T07:22:20.030Z,6.31
2017-03-09T07:23:29.878Z,6.28
2017-03-09T07:24:39.626Z,6.3
2017-03-09T07:25:49.370Z,6.34
2017-03-09T07:26:58.704Z,6.22
2017-03-09T07:28:08.032Z,6.17
2017-03-09T07:29:17.652Z,6.25
2017-03-09T07:30:27.388Z,6.28
2017-03-09T07:31:36.297Z,6.33
2017-03-09T07:32:45.652Z,6.21
2017-03-09T07:33:54.967Z,6.19
2017-03-09T07:35:03.972Z,6.27
2017-03-09T07:36:13.715Z,6.36
2017-03-09T07:37:23.046Z,6.3
2017-03-09T07:38:32.373Z,6.19
2017-03-09T07:39:42.126Z,6.31
2017-03-09T07:40:52.097Z,6.33
2017-03-09T07:42:01.055Z,6.25
2017-03-09T07:43:09.985Z,6.37
2017-03-09T07:44:19.828Z,6.38
2017-03-09T07:45:29.562Z,6.38
2017-03-09T07:46:38.578Z,6.41
2017-03-09T07:47:47.933Z,6.38
2017-03-09T07:48:57.258Z,6.38
2017-03-09T07:50:06.623Z,6.41
2017-03-09T07:51:16.372Z,6.37
2017-03-09T07:52:25.845Z,6.38
2017-03-09T07:53:35.591Z,6.36
2017-03-09T07:54:44.920Z,6.41
2017-03-09T07:55:54.646Z,6.41
2017-03-09T07:57:04.375Z,6.37
2017-03-09T07:58:13.940Z,6.37
2017-03-09T07:59:23.272Z,6.44
2017-03-09T08:00:32.198Z,6.51
2017-03-09T08:01:41.540Z,6.46
2017-03-09T08:02:50.883Z,6.51
2017-03-09T08:04:00.288Z,6.54
2017-03-09T08:05:10.021Z,6.51
2017-03-09T08:06:20.173Z,6.43
2017-03-09T08:07:29.494Z,6.48
2017-03-09T08:08:38.405Z,6.48
2017-03-09T08:09:48.355Z,6.43
2017-03-09T08:10:57.683Z,6.55
2017-03-09T08:12:07.434Z,6.52
2017-03-09T08:13:16.355Z,6.51
2017-03-09T08:14:25.686Z,6.51
2017-03-09T08:15:35.969Z,6.52
2017-03-09T08:16:45.300Z,6.58
2017-03-09T08:17:54.612Z,6.61
2017-03-09T08:19:04.352Z,6.62
2017-03-09T08:20:13.294Z,6.62
2017-03-09T08:21:22.778Z,6.66
2017-03-09T08:22:32.103Z,6.62
2017-03-09T08:23:41.439Z,6.62
2017-03-09T08:24:51.210Z,6.76
2017-03-09T08:26:00.149Z,6.61
2017-03-09T08:27:09.894Z,6.7
2017-03-09T08:28:19.640Z,6.73
2017-03-09T08:29:29.364Z,6.67
2017-03-09T08:30:39.516Z,6.77
2017-03-09T08:31:48.878Z,6.77
2017-03-09T08:32:58.611Z,6.76
2017-03-09T08:34:07.944Z,6.76
2017-03-09T08:35:17.768Z,6.74
2017-03-09T08:36:27.526Z,6.77
2017-03-09T08:39:55.453Z,6.74
2017-03-09T08:41:05.193Z,6.88
2017-03-09T08:42:14.924Z,6.85
2017-03-09T08:43:23.849Z,6.88
2017-03-09T08:44:34.596Z,6.81
2017-03-09T08:45:43.928Z,6.87
2017-03-09T08:46:54.100Z,6.79
2017-03-09T08:48:03.027Z,6.89
2017-03-09T08:49:11.945Z,6.8
2017-03-09T08:50:21.108Z,6.89
2017-03-09T08:51:30.024Z,6.98
2017-03-09T08:52:38.954Z,7.05
2017-03-09T08:53:48.705Z,7.06
2017-03-09T08:54:58.838Z,7.16
2017-03-09T08:56:08.612Z,7.07
2017-03-09T08:57:18.341Z,7.15
2017-03-09T08:58:27.671Z,7.17
2017-03-09T08:59:37.812Z,7.23
2017-03-09T09:00:46.749Z,7.25
2017-03-09T09:01:56.058Z,7.16
2017-03-09T09:03:05.381Z,7.28
2017-03-09T09:04:14.716Z,7.3
2017-03-09T09:05:23.619Z,7.28
2017-03-09T09:06:32.946Z,7.32
2017-03-09T09:07:42.030Z,7.32
2017-03-09T09:08:51.760Z,7.27
2017-03-09T09:10:01.079Z,7.31
2017-03-09T09:11:10.002Z,7.4
2017-03-09T09:12:19.740Z,7.4
2017-03-09T09:13:29.643Z,7.45
2017-03-09T09:14:39.400Z,7.5
2017-03-09T09:15:48.758Z,7.55
2017-03-09T09:16:58.484Z,7.52
2017-03-09T09:18:07.833Z,7.45
2017-03-09T09:19:17.720Z,7.57
2017-03-09T09:20:27.069Z,7.57
2017-03-09T09:21:37.214Z,7.61
2017-03-09T09:22:46.133Z,7.64
2017-03-09T09:23:55.885Z,7.72
2017-03-09T09:25:05.792Z,7.68
2017-03-09T09:26:16.342Z,7.63
2017-03-09T09:27:25.669Z,7.72
2017-03-09T09:28:35.413Z,7.64
2017-03-09T09:29:45.567Z,7.68
2017-03-09T09:30:54.947Z,7.71
2017-03-09T09:32:04.291Z,7.82
2017-03-09T09:33:13.634Z,7.89
2017-03-09T09:34:22.954Z,7.93
2017-03-09T09:35:32.709Z,7.97
2017-03-09T09:36:43.132Z,7.82
2017-03-09T09:37:52.877Z,8.01
2017-03-09T09:39:02.604Z,8
2017-03-09T09:40:12.378Z,8.01
2017-03-09T09:41:22.929Z,8.07
2017-03-09T09:42:32.391Z,8.07
2017-03-09T09:43:42.141Z,8.11
2017-03-09T09:44:52.298Z,8.11
2017-03-09T09:46:01.660Z,8.16
2017-03-09T09:47:11.004Z,8.28
2017-03-09T09:48:20.894Z,8.37
2017-03-09T09:49:30.234Z,8.43
2017-03-09T09:50:39.145Z,8.48
2017-03-09T09:51:48.895Z,8.41
2017-03-09T09:52:59.058Z,8.48
2017-03-09T09:54:08.441Z,8.4
2017-03-09T09:55:17.771Z,8.44
2017-03-09T09:56:27.106Z,8.44
2017-03-09T09:57:36.020Z,8.41
2017-03-09T09:58:44.976Z,8.43
2017-03-09T09:59:54.466Z,8.48
2017-03-09T10:01:03.796Z,8.53
2017-03-09T10:02:12.716Z,8.56
2017-03-09T10:03:22.463Z,8.56
2017-03-09T10:04:31.795Z,8.62
2017-03-09T10:05:41.450Z,8.61
2017-03-09T10:06:51.203Z,8.68
2017-03-09T10:08:01.361Z,8.71
2017-03-09T10:09:10.296Z,8.66
2017-03-09T10:10:19.624Z,8.62
2017-03-09T10:11:29.101Z,8.65
2017-03-09T10:12:39.248Z,8.66
2017-03-09T10:13:49.404Z,8.65
2017-03-09T10:14:58.739Z,8.65
2017-03-09T10:16:07.654Z,8.8
2017-03-09T10:17:16.731Z,8.73
2017-03-09T10:18:26.467Z,8.77
2017-03-09T10:19:36.230Z,8.84
2017-03-09T10:20:45.964Z,8.87
2017-03-09T10:21:55.295Z,8.84
2017-03-09T10:23:05.325Z,8.98
2017-03-09T10:24:15.094Z,8.83
2017-03-09T10:25:24.435Z,8.89
2017-03-09T10:26:33.352Z,8.98
2017-03-09T10:27:43.097Z,9.02
2017-03-09T10:28:52.973Z,9.02
2017-03-09T10:30:03.132Z,8.91
2017-03-09T10:31:13.685Z,9.14
2017-03-09T10:32:23.455Z,9.24
2017-03-09T10:33:32.788Z,9.23
2017-03-09T10:34:43.135Z,9.21
2017-03-09T10:35:52.057Z,9.2
2017-03-09T10:37:01.801Z,9.23
2017-03-09T10:38:11.962Z,9.42
2017-03-09T10:39:21.303Z,9.48
2017-03-09T10:40:31.198Z,9.5
2017-03-09T10:41:40.529Z,9.66
2017-03-09T10:42:49.444Z,9.5
2017-03-09T10:43:59.177Z,9.57
2017-03-09T10:45:08.094Z,9.5
2017-03-09T10:46:17.082Z,9.5
2017-03-09T10:47:26.830Z,9.66
2017-03-09T10:48:36.156Z,9.76
2017-03-09T10:49:45.087Z,9.76
2017-03-09T10:50:54.823Z,9.83
2017-03-09T10:52:04.660Z,9.89
2017-03-09T10:53:14.012Z,9.86
2017-03-09T10:54:24.170Z,9.97
2017-03-09T10:55:34.323Z,9.99
2017-03-09T10:56:44.474Z,9.91
2017-03-09T10:57:53.971Z,9.96
2017-03-09T10:59:02.891Z,9.97
2017-03-09T11:00:11.826Z,9.91
2017-03-09T11:01:21.158Z,10.07
2017-03-09T11:02:30.927Z,10.18
2017-03-09T11:03:40.481Z,10.25
2017-03-09T11:04:49.832Z,10.29
2017-03-09T11:05:58.766Z,10.36
2017-03-09T11:07:08.509Z,10.41
2017-03-09T11:08:17.848Z,10.41
2017-03-09T11:09:27.340Z,10.51
2017-03-09T11:10:36.271Z,10.48
2017-03-09T11:11:45.213Z,10.55
2017-03-09T11:12:54.945Z,10.51
2017-03-09T11:14:04.717Z,10.61
2017-03-09T11:15:13.823Z,10.59
2017-03-09T11:16:23.555Z,10.64
2017-03-09T11:17:32.897Z,10.59
2017-03-09T11:18:42.255Z,10.59
2017-03-09T11:19:52.405Z,10.71
2017-03-09T11:21:01.437Z,10.81
2017-03-09T11:22:10.390Z,10.85
2017-03-09T11:23:20.126Z,10.79
2017-03-09T11:24:29.866Z,10.74
2017-03-09T11:25:38.796Z,10.67
2017-03-09T11:26:49.071Z,10.71
2017-03-09T11:27:59.238Z,10.84
2017-03-09T11:29:09.395Z,10.81
2017-03-09T11:30:18.328Z,10.71
2017-03-09T11:31:28.068Z,10.67
2017-03-09T11:32:37.457Z,10.7
2017-03-09T11:33:46.389Z,10.81
2017-03-09T11:34:55.732Z,10.78
2017-03-09T11:36:05.075Z,10.81
2017-03-09T11:37:14.412Z,10.84
2017-03-09T11:38:23.844Z,10.71
2017-03-09T11:39:33.177Z,10.82
2017-03-09T11:40:42.507Z,10.81
2017-03-09T11:41:51.863Z,10.7
2017-03-09T11:43:01.190Z,10.79
2017-03-09T11:44:10.571Z,10.94
2017-03-09T11:45:19.913Z,10.84
2017-03-09T11:46:29.244Z,10.84
2017-03-09T11:47:38.588Z,10.88
2017-03-09T11:48:48.341Z,10.88
2017-03-09T11:49:58.138Z,10.84
2017-03-09T11:51:07.531Z,10.82
2017-03-09T11:52:17.267Z,10.86
2017-03-09T11:53:27.007Z,10.94
2017-03-09T11:54:37.205Z,10.91
2017-03-09T11:55:46.990Z,10.97
2017-03-09T11:56:55.955Z,11.03
2017-03-09T11:58:04.890Z,11.04
2017-03-09T11:59:14.279Z,11.1
2017-03-09T12:00:24.020Z,11.18
2017-03-09T12:01:33.464Z,11.14
2017-03-09T12:02:43.660Z,11.09
2017-03-09T12:03:53.869Z,11.24
2017-03-09T12:05:04.031Z,11.14
2017-03-09T12:06:14.629Z,11.17
2017-03-09T12:07:24.008Z,11.22
2017-03-09T12:08:33.756Z,11.29
2017-03-09T12:09:43.558Z,11.37
2017-03-09T12:10:52.887Z,11.36
2017-03-09T12:12:02.291Z,11.36
2017-03-09T12:13:12.176Z,11.39
2017-03-09T12:14:21.110Z,11.49
2017-03-09T12:15:30.498Z,11.37
2017-03-09T12:16:40.251Z,11.29
2017-03-09T12:17:50.435Z,11.37
2017-03-09T12:19:00.349Z,11.32
2017-03-09T12:20:09.317Z,11.28
2017-03-09T12:21:19.068Z,11.46
2017-03-09T12:22:28.816Z,11.4
2017-03-09T12:23:37.757Z,11.43
2017-03-09T12:24:46.752Z,11.36
2017-03-09T12:25:56.954Z,11.42
2017-03-09T12:27:05.908Z,11.35
2017-03-09T12:28:15.235Z,11.28
2017-03-09T12:29:24.576Z,11.32
2017-03-09T12:30:33.785Z,11.27
2017-03-09T12:31:43.121Z,11.28
2017-03-09T12:32:52.470Z,11.19
2017-03-09T12:34:02.238Z,11.24
2017-03-09T12:35:11.615Z,11.19
2017-03-09T12:36:21.180Z,11.27
2017-03-09T12:37:30.138Z,11.21
2017-03-09T12:38:39.913Z,11.1
2017-03-09T12:39:49.682Z,11.09
2017-03-09T12:40:59.011Z,11.19
2017-03-09T12:42:09.318Z,11.14
2017-03-09T12:43:18.298Z,11.04
2017-03-09T12:44:28.066Z,11.18
2017-03-09T12:45:37.398Z,11.06
2017-03-09T12:46:46.319Z,11.09
2017-03-09T12:47:56.652Z,11.04
2017-03-09T12:49:06.743Z,10.91
2017-03-09T12:50:16.121Z,10.91
2017-03-09T12:51:25.541Z,10.82
2017-03-09T12:52:34.893Z,10.94
2017-03-09T12:53:44.083Z,10.91
2017-03-09T12:54:53.443Z,10.84
2017-03-09T12:56:02.775Z,10.88
2017-03-09T12:57:12.103Z,10.82
2017-03-09T12:58:21.482Z,10.78
2017-03-09T12:59:31.361Z,10.76
2017-03-09T13:00:40.705Z,10.84
2017-03-09T13:01:50.052Z,10.82
2017-03-09T13:02:59.816Z,10.81
2017-03-09T13:04:09.156Z,10.81
2017-03-09T13:05:18.784Z,10.7
2017-03-09T13:06:28.147Z,10.55
2017-03-09T13:07:37.513Z,10.6
2017-03-09T13:08:46.837Z,10.61
2017-03-09T13:09:56.613Z,10.59
2017-03-09T13:11:06.403Z,10.59
2017-03-09T13:12:16.149Z,10.59
2017-03-09T13:13:25.111Z,10.56
2017-03-09T13:14:35.287Z,10.51
2017-03-09T13:15:44.211Z,10.52
2017-03-09T13:16:53.127Z,10.53
2017-03-09T13:18:02.872Z,10.42
2017-03-09T13:19:11.792Z,10.4
2017-03-09T13:20:20.723Z,10.42
2017-03-09T13:21:29.639Z,10.44
2017-03-09T13:22:38.770Z,10.4
2017-03-09T13:23:47.691Z,10.41
2017-03-09T13:24:57.467Z,10.32
2017-03-09T13:26:06.796Z,10.27
2017-03-09T13:27:16.123Z,10.17
2017-03-09T13:28:25.517Z,10.02
2017-03-09T13:29:34.880Z,10.05
2017-03-09T13:30:44.211Z,9.96
2017-03-09T13:31:53.555Z,9.93
2017-03-09T13:33:03.716Z,9.86
2017-03-09T13:34:13.771Z,9.96
2017-03-09T13:35:22.686Z,9.87
2017-03-09T13:36:32.054Z,9.86
2017-03-09T13:37:41.387Z,9.78
2017-03-09T13:38:50.310Z,9.81
2017-03-09T13:39:59.944Z,9.78
2017-03-09T13:41:08.920Z,9.71
2017-03-09T13:42:19.130Z,9.76
2017-03-09T13:43:28.070Z,9.72
2017-03-09T13:44:37.826Z,9.68
2017-03-09T13:45:47.271Z,9.66
2017-03-09T13:46:56.191Z,9.71
2017-03-09T13:48:06.348Z,9.57
2017-03-09T13:49:15.721Z,9.56
2017-03-09T13:50:24.686Z,9.53
2017-03-09T13:51:33.738Z,9.39
2017-03-09T13:52:43.093Z,9.38
2017-03-09T13:53:52.425Z,9.38
2017-03-09T13:55:01.752Z,9.38
2017-03-09T13:56:11.525Z,9.4
2017-03-09T13:57:20.613Z,9.47
2017-03-09T13:58:29.545Z,9.47
2017-03-09T13:59:38.871Z,9.5
2017-03-09T14:00:48.608Z,9.36
2017-03-09T14:01:57.558Z,9.32
2017-03-09T14:03:06.734Z,9.32
2017-03-09T14:04:16.063Z,9.35
2017-03-09T14:05:25.803Z,9.31
2017-03-09T14:06:35.153Z,9.26
2017-03-09T14:07:44.138Z,9.28
2017-03-09T14:08:54.408Z,9.23
2017-03-09T14:10:04.148Z,9.21
2017-03-09T14:11:14.758Z,9.23
2017-03-09T14:12:23.683Z,9.23
2017-03-09T14:13:33.421Z,9.2
2017-03-09T14:14:43.425Z,9.26
2017-03-09T14:15:53.172Z,9.29
2017-03-09T14:17:02.143Z,9.21
2017-03-09T14:18:11.902Z,9.23
2017-03-09T14:19:21.662Z,9.32
2017-03-09T14:20:31.096Z,9.23
2017-03-09T14:21:40.041Z,9.24
2017-03-09T14:22:49.361Z,9.33
2017-03-09T14:23:59.104Z,9.26
2017-03-09T14:25:08.879Z,9.32
2017-03-09T14:26:18.147Z,9.33
2017-03-09T14:27:27.068Z,9.33
2017-03-09T14:28:36.416Z,9.32
2017-03-09T14:29:46.167Z,9.32
2017-03-09T14:30:55.521Z,9.23
2017-03-09T14:32:04.956Z,9.26
2017-03-09T14:33:14.297Z,9.31
2017-03-09T14:34:23.243Z,9.23
2017-03-09T14:35:32.581Z,9.32
2017-03-09T14:36:41.918Z,9.32
2017-03-09T14:37:51.164Z,9.28
2017-03-09T14:39:00.505Z,9.31
2017-03-09T14:40:10.237Z,9.33
2017-03-09T14:41:19.583Z,9.29
2017-03-09T14:42:29.316Z,9.28
2017-03-09T14:43:38.952Z,9.36
2017-03-09T14:44:48.290Z,9.43
2017-03-09T14:45:58.349Z,9.38
2017-03-09T14:47:07.457Z,9.4
2017-03-09T14:48:18.162Z,9.35
2017-03-09T14:49:27.104Z,9.36
2017-03-09T14:50:36.048Z,9.36
2017-03-09T14:51:45.408Z,9.4
2017-03-09T14:52:54.334Z,9.4
2017-03-09T14:54:04.083Z,9.39
2017-03-09T14:55:13.404Z,9.4
2017-03-09T14:56:23.577Z,9.46
2017-03-09T14:57:32.499Z,9.43
2017-03-09T14:58:42.229Z,9.43
2017-03-09T14:59:51.560Z,9.57
2017-03-09T15:01:02.137Z,9.51
2017-03-09T15:02:12.305Z,9.5
2017-03-09T15:03:21.239Z,9.47
2017-03-09T15:04:31.407Z,9.5
2017-03-09T15:05:40.742Z,9.51
2017-03-09T15:06:50.489Z,9.57
2017-03-09T15:07:59.397Z,9.54
2017-03-09T15:09:09.048Z,9.6
2017-03-09T15:10:19.598Z,9.65
2017-03-09T15:11:28.943Z,9.61
2017-03-09T15:12:38.675Z,9.68
2017-03-09T15:13:47.639Z,9.68
2017-03-09T15:14:56.596Z,9.65
2017-03-09T15:16:05.953Z,9.71
2017-03-09T15:17:15.282Z,9.65
2017-03-09T15:18:25.020Z,9.66
2017-03-09T15:19:34.379Z,9.58
2017-03-09T15:20:43.702Z,9.66
2017-03-09T15:21:54.261Z,9.64
2017-03-09T15:23:04.009Z,9.71
2017-03-09T15:24:13.342Z,9.64
2017-03-09T15:25:23.573Z,9.58